LIPQ 192350Z AUTO 08002KT 9999 NCD 14/09 Q1026 LIPQ 192320Z AUTO VRB02KT 9999 NCD 13/09 Q1026 LIPQ 192250Z AUTO VRB01KT 9999 NCD 14/09 Q1026 LIPQ 192220Z AUTO 10002KT 9999 NCD 14/09 Q1026 LIPQ 192150Z AUTO 11006KT 9999 NCD 14/09 Q1026 LIPQ 192120Z AUTO 11004KT 9999 NCD 16/10 Q1026 LIPQ 192050Z AUTO 06002KT 9999 NCD 15/12 Q1026 LIPQ 192020Z AUTO 04002KT 9999 NCD 16/13 Q1026 LIPQ 191950Z AUTO VRB01KT 9999 NCD 17/13 Q1026 LIPQ 191920Z AUTO 16002KT 9999 NCD 18/14 Q1026 LIPQ 191850Z AUTO 15004KT 9999 NCD 19/14 Q1026 LIPQ 191820Z AUTO 20004KT 9999 NCD 20/13 Q1026 LIPQ 191750Z AUTO 18004KT 9999 NCD 21/13 Q1026 LIPQ 191720Z AUTO 18005KT 9999 NCD 22/12 Q1026 LIPQ 191650Z AUTO 19006KT 170V230 9999 NCD 22/12 Q1026 LIPQ 191620Z AUTO 20007KT 170V230 9999 NCD 23/10 Q1026 LIPQ 191550Z AUTO 21006KT 160V240 9999 NCD 23/10 Q1026 LIPQ 191520Z AUTO 20007KT 170V240 9999 NCD 24/09 Q1026 LIPQ 191450Z AUTO 19006KT 160V220 9999 NCD 24/08 Q1026 LIPQ 191420Z AUTO 21006KT 160V260 9999 NCD 24/09 Q1026 LIPQ 191350Z AUTO 22007KT 190V250 9999 NCD 24/07 Q1026 LIPQ 191320Z AUTO 21007KT 170V250 9999 NCD 24/07 Q1026 LIPQ 191250Z AUTO 23006KT 170V290 9999 NCD 25/07 Q1027 LIPQ 191220Z AUTO 21008KT 180V250 9999 NCD 24/05 Q1027 LIPQ 191150Z AUTO 23008KT 190V270 9999 NCD 25/06 Q1027 LIPQ 191120Z AUTO 20005KT 130V270 9999 NCD 25/03 Q1027 LIPQ 191050Z AUTO 22007KT 170V260 9999 NCD 25/03 Q1027 LIPQ 191020Z AUTO VRB03KT 9999 NCD 25/03 Q1027 LIPQ 190950Z AUTO VRB04KT 9999 NCD 24/03 Q1027 LIPQ 190920Z AUTO 16005KT 060V230 9999 NCD 24/03 Q1027 LIPQ 190850Z AUTO 17004KT 100V210 9999 NCD 23/04 Q1027 LIPQ 190820Z AUTO VRB03KT 9999 NCD 23/06 Q1027 LIPQ 190750Z AUTO VRB03KT 9999 NCD 22/06 Q1027 LIPQ 190720Z AUTO VRB02KT 9999 NCD 21/08 Q1027 LIPQ 190650Z AUTO 07003KT 360V140 9999 NCD 20/09 Q1027 LIPQ 190620Z AUTO VRB02KT 9999 NCD 19/07 Q1027 LIPQ 190550Z AUTO 10004KT 070V130 9999 NCD 19/07 Q1027 LIPQ 190520Z AUTO 08004KT 060V130 9999 NCD 18/07 Q1027 LIPQ 190450Z AUTO 12003KT 9999 NCD 16/08 Q1027 LIPQ 190420Z AUTO VRB02KT 9999 NCD 13/08 Q1026 LIPQ 190350Z AUTO VRB02KT 9999 NCD 12/08 Q1026 LIPQ 190320Z AUTO VRB02KT 9999 NCD 13/07 Q1026 LIPQ 190250Z AUTO 01003KT 9999 NCD 14/07 Q1026 LIPQ 190220Z AUTO 34004KT 9999 NCD 15/06 Q1026 LIPQ 190150Z AUTO 05005KT 030V100 9999 FEW080/// 17/05 Q1026 LIPQ 190120Z AUTO 05003KT 020V100 9999 NCD 16/06 Q1026 LIPQ 190050Z AUTO 12003KT 9999 NCD 16/05 Q1026 LIPQ 190020Z AUTO VRB01KT 9999 NCD 14/07 Q1026 LIPQ 182350Z AUTO VRB02KT 9999 NCD 16/06 Q1026 LIPQ 182320Z AUTO 13005KT 9999 NCD 18/04 Q1026 LIPQ 182250Z AUTO 13005KT 9999 NCD 19/04 Q1026 LIPQ 182220Z AUTO 11006KT 9999 NCD 20/04 Q1026 LIPQ 182150Z AUTO 11006KT 9999 NCD 20/04 Q1026 LIPQ 182120Z AUTO 13005KT 080V170 9999 NCD 20/04 Q1025 LIPQ 182050Z AUTO VRB04KT 9999 SCT071/// 21/05 Q1025 LIPQ 182020Z AUTO 10005KT 9999 BKN069/// 20/05 Q1025 LIPQ 181950Z AUTO VRB01KT 9999 BKN070/// 20/07 Q1025 LIPQ 181920Z AUTO 11007KT 9999 NCD 21/08 Q1024 LIPQ 181850Z AUTO 10008KT 9999 FEW080/// 21/08 Q1024 LIPQ 181820Z AUTO 11009KT 9999 NCD 22/08 Q1024 LIPQ 181750Z AUTO 12009KT 9999 SCT072/// 24/08 Q1023 LIPQ 181720Z AUTO 13010KT 9999 BKN072/// 25/08 Q1023 LIPQ 181650Z AUTO 11008KT 9999 OVC073/// 25/10 Q1022 LIPQ 181620Z AUTO 11010KT 9999 BKN075/// 25/09 Q1022 LIPQ 181550Z AUTO 11012KT 9999 FEW073/// 26/10 Q1022 LIPQ 181520Z AUTO 12012KT 9999 BKN120/// 26/10 Q1022 LIPQ 181450Z AUTO 11010KT 080V140 9999 FEW071/// 27/10 Q1022 LIPQ 181420Z AUTO 08012G22KT 050V110 9999 BKN070/// 27/11 Q1022 LIPQ 181350Z AUTO 13012KT 9999 SCT070/// 28/10 Q1022 LIPQ 181320Z AUTO 13013KT 100V160 9999 BKN069/// 27/10 Q1022 LIPQ 181250Z AUTO 13010KT 080V160 9999 FEW072/// 28/10 Q1022 LIPQ 181220Z AUTO 12009KT 090V150 9999 NCD 27/11 Q1022

METAR Messwerte "RONCHI LEGIONARI" LIPQ

Zurück zur Übersicht

Ortsname
Ländercode / m ü. NN
Zeit Temperatur Taupunkt Rel.
Luftfeuchte
Luftdruck:
Altimeter
NN
Station
Wind in Beaufort
(Knoten)
Sichtweite
(Meter)
Wolken
(Meter über Grund)
Wettererscheinung
RONCHI LEGIONARI
IT 6
Fr 20.05. 01:5014972 %1026
1026
1025
O 1 (2)>= 10000  
RONCHI LEGIONARI
IT 6
Fr 20.05. 01:2013977 %1026
1026
1025
Uml 1 (2)>= 10000  
RONCHI LEGIONARI
IT 6
Fr 20.05. 00:5014972 %1026
1026
1025
Uml 1 (1)>= 10000  
RONCHI LEGIONARI
IT 6
Fr 20.05. 00:2014972 %1026
1026
1025
O 1 (2)>= 10000  
RONCHI LEGIONARI
IT 6
Do 19.05. 23:5014972 %1026
1026
1025
OSO 2 (6)>= 10000  
RONCHI LEGIONARI
IT 6
Do 19.05. 23:20161068 %1026
1026
1025
OSO 2 (4)>= 10000  
RONCHI LEGIONARI
IT 6
Do 19.05. 22:50151282 %1026
1026
1025
ONO 1 (2)>= 10000  
RONCHI LEGIONARI
IT 6
Do 19.05. 22:20161382 %1026
1026
1025
NO 1 (2)>= 10000  
RONCHI LEGIONARI
IT 6
Do 19.05. 21:50171377 %1026
1026
1025
Uml 1 (1)>= 10000  
RONCHI LEGIONARI
IT 6
Do 19.05. 21:20181477 %1026
1026
1025
SSO 1 (2)>= 10000  
RONCHI LEGIONARI
IT 6
Do 19.05. 20:50191473 %1026
1026
1025
SSO 2 (4)>= 10000  
RONCHI LEGIONARI
IT 6
Do 19.05. 20:20201364 %1026
1026
1025
SSW 2 (4)>= 10000  
RONCHI LEGIONARI
IT 6
Do 19.05. 19:50211360 %1026
1026
1025
S 2 (4)>= 10000  
RONCHI LEGIONARI
IT 6
Do 19.05. 19:20221253 %1026
1026
1025
S 2 (5)>= 10000  
RONCHI LEGIONARI
IT 6
Do 19.05. 18:50221253 %1026
1026
1025
S 2 (6)
S - SW
>= 10000  
RONCHI LEGIONARI
IT 6
Do 19.05. 18:20231044 %1026
1026
1025
SSW 3 (7)
S - SW
>= 10000  
RONCHI LEGIONARI
IT 6
Do 19.05. 17:50231044 %1026
1026
1025
SSW 2 (6)
SSO - WSW
>= 10000  
RONCHI LEGIONARI
IT 6
Do 19.05. 17:2024938 %1026
1026
1025
SSW 3 (7)
S - WSW
>= 10000  
RONCHI LEGIONARI
IT 6
Do 19.05. 16:5024836 %1026
1026
1025
S 2 (6)
SSO - SW
>= 10000  
RONCHI LEGIONARI
IT 6
Do 19.05. 16:2024938 %1026
1026
1025
SSW 2 (6)
SSO - W
>= 10000  
RONCHI LEGIONARI
IT 6
Do 19.05. 15:5024734 %1026
1026
1025
SW 3 (7)
S - WSW
>= 10000  
RONCHI LEGIONARI
IT 6
Do 19.05. 15:2024734 %1026
1026
1025
SSW 3 (7)
S - WSW
>= 10000  
RONCHI LEGIONARI
IT 6
Do 19.05. 14:5025732 %1027
1027
1026
SW 2 (6)
S - WNW
>= 10000  
RONCHI LEGIONARI
IT 6
Do 19.05. 14:2024529 %1027
1027
1026
SSW 3 (8)
S - WSW
>= 10000  
RONCHI LEGIONARI
IT 6
Do 19.05. 13:5025630 %1027
1027
1026
SW 3 (8)
S - W
>= 10000  
RONCHI LEGIONARI
IT 6
Do 19.05. 13:2025324 %1027
1027
1026
SSW 2 (5)
SO - W
>= 10000  
RONCHI LEGIONARI
IT 6
Do 19.05. 12:5025324 %1027
1027
1026
SW 3 (7)
S - W
>= 10000  
RONCHI LEGIONARI
IT 6
Do 19.05. 12:2025324 %1027
1027
1026
Uml 2 (3)>= 10000  
RONCHI LEGIONARI
IT 6
Do 19.05. 11:5024325 %1027
1027
1026
Uml 2 (4)>= 10000  
RONCHI LEGIONARI
IT 6
Do 19.05. 11:2024325 %1027
1027
1026
SSO 2 (5)
ONO - SW
>= 10000  
RONCHI LEGIONARI
IT 6
Do 19.05. 10:5023429 %1027
1027
1026
S 2 (4)
O - SSW
>= 10000  
RONCHI LEGIONARI
IT 6
Do 19.05. 10:2023633 %1027
1027
1026
Uml 2 (3)>= 10000  
RONCHI LEGIONARI
IT 6
Do 19.05. 09:5022635 %1027
1027
1026
Uml 2 (3)>= 10000  
RONCHI LEGIONARI
IT 6
Do 19.05. 09:2021843 %1027
1027
1026
Uml 1 (2)>= 10000  
RONCHI LEGIONARI
IT 6
Do 19.05. 08:5020949 %1027
1027
1026
ONO 2 (3)
N - SO
>= 10000  
RONCHI LEGIONARI
IT 6
Do 19.05. 08:2019746 %1027
1027
1026
Uml 1 (2)>= 10000  
RONCHI LEGIONARI
IT 6
Do 19.05. 07:5019746 %1027
1027
1026
O 2 (4)
ONO - SO
>= 10000  
RONCHI LEGIONARI
IT 6
Do 19.05. 07:2018749 %1027
1027
1026
O 2 (4)
ONO - SO
>= 10000  
RONCHI LEGIONARI
IT 6
Do 19.05. 06:5016859 %1027
1027
1026
OSO 2 (3)>= 10000  
RONCHI LEGIONARI
IT 6
Do 19.05. 06:2013872 %1026
1026
1025
Uml 1 (2)>= 10000  
RONCHI LEGIONARI
IT 6
Do 19.05. 05:5012876 %1026
1026
1025
Uml 1 (2)>= 10000  
RONCHI LEGIONARI
IT 6
Do 19.05. 05:2013767 %1026
1026
1025
Uml 1 (2)>= 10000  
RONCHI LEGIONARI
IT 6
Do 19.05. 04:5014763 %1026
1026
1025
N 2 (3)>= 10000  
RONCHI LEGIONARI
IT 6
Do 19.05. 04:2015655 %1026
1026
1025
NNW 2 (4)>= 10000  
RONCHI LEGIONARI
IT 6
Do 19.05. 03:5017545 %1026
1026
1025
NO 2 (5)
NNO - O
>= 10000Leicht bewölkt (2400) 
RONCHI LEGIONARI
IT 6
Do 19.05. 03:2016651 %1026
1026
1025
NO 2 (3)
NNO - O
>= 10000  
RONCHI LEGIONARI
IT 6
Do 19.05. 02:5016548 %1026
1026
1025
OSO 2 (3)>= 10000  
RONCHI LEGIONARI
IT 6
Do 19.05. 02:2014763 %1026
1026
1025
Uml 1 (1)>= 10000  
RONCHI LEGIONARI
IT 6
Do 19.05. 01:5016651 %1026
1026
1025
Uml 1 (2)>= 10000  
RONCHI LEGIONARI
IT 6
Do 19.05. 01:2018439 %1026
1026
1025
SO 2 (5)>= 10000  
RONCHI LEGIONARI
IT 6
Do 19.05. 00:5019437 %1026
1026
1025
SO 2 (5)>= 10000  
RONCHI LEGIONARI
IT 6
Do 19.05. 00:2020435 %1026
1026
1025
OSO 2 (6)>= 10000  
RONCHI LEGIONARI
IT 6
Mi 18.05. 23:5020435 %1026
1026
1025
OSO 2 (6)>= 10000  
RONCHI LEGIONARI
IT 6
Mi 18.05. 23:2020435 %1025
1025
1024
SO 2 (5)
O - S
>= 10000  
RONCHI LEGIONARI
IT 6
Mi 18.05. 22:5021535 %1025
1025
1024
Uml 2 (4)>= 10000Wolkig (2200) 
RONCHI LEGIONARI
IT 6
Mi 18.05. 22:2020537 %1025
1025
1024
O 2 (5)>= 10000Stark bewölkt (2100) 
RONCHI LEGIONARI
IT 6
Mi 18.05. 21:5020743 %1025
1025
1024
Uml 1 (1)>= 10000Stark bewölkt (2100) 
RONCHI LEGIONARI
IT 6
Mi 18.05. 21:2021843 %1024
1024
1023
OSO 3 (7)>= 10000  
RONCHI LEGIONARI
IT 6
Mi 18.05. 20:5021843 %1024
1024
1023
O 3 (8)>= 10000Leicht bewölkt (2400) 
RONCHI LEGIONARI
IT 6
Mi 18.05. 20:2022841 %1024
1024
1023
OSO 3 (9)>= 10000  
RONCHI LEGIONARI
IT 6
Mi 18.05. 19:5024836 %1023
1023
1022
OSO 3 (9)>= 10000Wolkig (2200) 
RONCHI LEGIONARI
IT 6
Mi 18.05. 19:2025834 %1023
1023
1022
SO 3 (10)>= 10000Stark bewölkt (2200) 
RONCHI LEGIONARI
IT 6
Mi 18.05. 18:50251039 %1022
1022
1021
OSO 3 (8)>= 10000Bedeckt (2200) 
RONCHI LEGIONARI
IT 6
Mi 18.05. 18:2025936 %1022
1022
1021
OSO 3 (10)>= 10000Stark bewölkt (2300) 
RONCHI LEGIONARI
IT 6
Mi 18.05. 17:50261037 %1022
1022
1021
OSO 4 (12)>= 10000Leicht bewölkt (2200) 
RONCHI LEGIONARI
IT 6
Mi 18.05. 17:20261037 %1022
1022
1021
OSO 4 (12)>= 10000Stark bewölkt (3700) 
RONCHI LEGIONARI
IT 6
Mi 18.05. 16:50271034 %1022
1022
1021
OSO 3 (10)
O - SO
>= 10000Leicht bewölkt (2200) 
RONCHI LEGIONARI
IT 6
Mi 18.05. 16:20271137 %1022
1022
1021
O 4 (12) - 6 (22)
NO - OSO
>= 10000Stark bewölkt (2100) 
RONCHI LEGIONARI
IT 6
Mi 18.05. 15:50281032 %1022
1022
1021
SO 4 (12)>= 10000Wolkig (2100) 
RONCHI LEGIONARI
IT 6
Mi 18.05. 15:20271034 %1022
1022
1021
SO 4 (13)
O - SSO
>= 10000Stark bewölkt (2100) 
RONCHI LEGIONARI
IT 6
Mi 18.05. 14:50281032 %1022
1022
1021
SO 3 (10)
O - SSO
>= 10000Leicht bewölkt (2200) 
RONCHI LEGIONARI
IT 6
Mi 18.05. 14:20271137 %1022
1022
1021
OSO 3 (9)
O - SSO
>= 10000  

Altimeter: Einstellung am Altimeter (Höhenmesser), die Höhe 0 muss auf diesen Luftdruckwert zeigen, damit das Gerät die Stationshöhe richtig anzeigt.

NN: Luftdruck reduziert auf "Normal Null", auf Meereshöhe, dieser von der Temperatur abhängige Wert wird bisweilen unkorrekt einfach als "Luftdruck" bezeichnet. Eigentlich nur eine fiktive Größe, die es erlaubt, Stationen auf unterschiedlichen Höhen miteinander zu vergleichen.

Station: Realer Luftdruck an der Station.